Time;durP1;ratioP1;P1;durP2;ratioP2;P2;SDS_P1;SDS_P2;PMS_P1;PMS_P2;Temp;Humidity;BMP_temperature;BMP_pressure;BME280_temperature;BME280_humidity;BME280_pressure;Samples;Min_cycle;Max_cycle;Signal;HPM_P1;HPM_P2
2021/07/04 00:02:03;;;;;;;;;;;18.50;1.00;;;;;;5089072;28;20329;-60
2021/07/04 00:04:28;;;;;;;;;;;18.40;1.00;;;;;;5089689;28;19912;-60
2021/07/04 00:06:54;;;;;;;;;;;18.40;1.00;;;;;;5088752;28;19912;-60
2021/07/04 00:09:19;;;;;;;;;;;18.40;1.00;;;;;;5068354;28;19923;-60
2021/07/04 00:11:45;;;;;;;;;;;18.40;1.00;;;;;;5068867;28;19948;-60
2021/07/04 00:14:11;;;;;;;;;;;18.40;1.00;;;;;;5068936;28;19995;-60
2021/07/04 00:16:36;;;;;;;;;;;18.40;1.00;;;;;;5068615;28;19909;-60
2021/07/04 00:19:02;;;;;;;;;;;18.40;1.00;;;;;;5067515;28;19938;-60
2021/07/04 00:21:28;;;;;;;;;;;18.40;1.00;;;;;;5067806;28;19970;-60
2021/07/04 00:23:53;;;;;;;;;;;18.40;1.00;;;;;;5061103;28;19995;-60
2021/07/04 00:26:19;;;;;;;;;;;18.30;1.00;;;;;;5048223;28;20290;-60
2021/07/04 00:28:44;;;;;;;;;;;18.30;1.00;;;;;;5047595;28;19920;-60
2021/07/04 00:31:10;;;;;;;;;;;18.30;1.00;;;;;;5046970;28;20441;-60
2021/07/04 00:33:35;;;;;;;;;;;18.30;1.00;;;;;;5048015;28;20329;-60
2021/07/04 00:36:01;;;;;;;;;;;18.30;1.00;;;;;;5048756;28;20378;-60
2021/07/04 00:38:27;;;;;;;;;;;18.30;1.00;;;;;;5046813;28;20279;-60
2021/07/04 00:40:53;;;;;;;;;;;18.20;1.00;;;;;;5048129;28;20000;-60
2021/07/04 00:43:19;;;;;;;;;;;18.30;1.00;;;;;;5048264;28;20377;-60
2021/07/04 00:45:44;;;;;;;;;;;18.20;1.00;;;;;;5048075;28;19941;-60
2021/07/04 00:48:10;;;;;;;;;;;18.20;1.00;;;;;;5047174;28;19916;-60
2021/07/04 00:50:36;;;;;;;;;;;18.20;1.00;;;;;;5048541;28;19913;-60
2021/07/04 00:53:02;;;;;;;;;;;18.20;1.00;;;;;;5047872;28;19916;-60
2021/07/04 00:55:28;;;;;;;;;;;18.20;1.00;;;;;;5047678;28;20269;-60
2021/07/04 00:57:53;;;;;;;;;;;18.20;1.00;;;;;;5046892;28;19912;-60
2021/07/04 01:00:20;;;;;;;;;;;18.20;1.00;;;;;;5110325;22;19928;-59
2021/07/04 01:02:46;;;;;;;;;;;18.20;1.00;;;;;;5088831;28;19912;-60
2021/07/04 01:05:12;;;;;;;;;;;18.20;1.00;;;;;;5088873;28;20323;-61
2021/07/04 01:07:39;;;;;;;;;;;18.30;1.00;;;;;;5087830;28;19960;-61
2021/07/04 01:10:05;;;;;;;;;;;18.30;1.00;;;;;;5087944;28;20359;-60
2021/07/04 01:12:31;;;;;;;;;;;18.30;1.00;;;;;;5088742;28;19915;-59
2021/07/04 01:14:56;;;;;;;;;;;18.30;1.00;;;;;;5089052;28;20249;-61
2021/07/04 01:17:22;;;;;;;;;;;18.30;1.00;;;;;;5087501;28;19916;-62
2021/07/04 01:19:48;;;;;;;;;;;18.30;1.00;;;;;;5088808;28;19916;-59
2021/07/04 01:22:15;;;;;;;;;;;18.30;1.00;;;;;;5092146;28;20351;-60
2021/07/04 01:24:41;;;;;;;;;;;18.20;1.00;;;;;;5091979;28;19908;-61
2021/07/04 01:27:06;;;;;;;;;;;18.20;1.00;;;;;;5092528;28;20423;-60
2021/07/04 01:29:32;;;;;;;;;;;18.10;1.00;;;;;;5091833;28;19973;-63
2021/07/04 01:31:57;;;;;;;;;;;18.10;1.00;;;;;;5092429;28;19985;-58
2021/07/04 01:34:23;;;;;;;;;;;18.00;1.00;;;;;;5092293;28;20446;-58
2021/07/04 01:36:48;;;;;;;;;;;18.00;1.00;;;;;;5092219;28;20322;-60
2021/07/04 01:39:14;;;;;;;;;;;17.90;1.00;;;;;;5091372;28;19961;-58
2021/07/04 01:41:40;;;;;;;;;;;17.90;1.00;;;;;;5092182;28;19934;-57
2021/07/04 01:44:05;;;;;;;;;;;17.90;1.00;;;;;;5091806;28;20522;-58
2021/07/04 01:46:31;;;;;;;;;;;18.00;1.00;;;;;;5092130;28;19919;-56
2021/07/04 01:48:56;;;;;;;;;;;17.90;1.00;;;;;;5083047;28;19912;-58
2021/07/04 01:51:24;;;;;;;;;;;17.90;1.00;;;;;;5092079;28;19908;-59
2021/07/04 01:53:50;;;;;;;;;;;17.90;1.00;;;;;;5091251;28;19919;-62
2021/07/04 01:56:15;;;;;;;;;;;17.90;1.00;;;;;;5091890;28;19908;-61
2021/07/04 01:58:41;;;;;;;;;;;17.90;1.00;;;;;;5096853;28;20052;-59
2021/07/04 02:01:07;;;;;;;;;;;17.90;1.00;;;;;;5112299;28;19923;-63
2021/07/04 02:03:33;;;;;;;;;;;18.00;1.00;;;;;;5111901;28;19908;-59
2021/07/04 02:05:58;;;;;;;;;;;18.00;1.00;;;;;;5112489;28;19935;-61
2021/07/04 02:08:24;;;;;;;;;;;18.00;1.00;;;;;;5099672;28;19920;-59
2021/07/04 02:10:49;;;;;;;;;;;18.00;1.00;;;;;;5091560;28;19930;-62
2021/07/04 02:13:15;;;;;;;;;;;18.10;1.00;;;;;;5091461;28;19965;-63
2021/07/04 02:15:41;;;;;;;;;;;18.10;1.00;;;;;;5092012;28;19912;-56
2021/07/04 02:18:08;;;;;;;;;;;18.10;1.00;;;;;;5090282;28;19943;-59
2021/07/04 02:20:54;;;;;;;;;;;18.10;1.00;;;;;;5091671;28;20411;-61
2021/07/04 02:23:21;;;;;;;;;;;18.00;1.00;;;;;;5090085;28;20277;-63
2021/07/04 02:25:47;;;;;;;;;;;18.10;1.00;;;;;;5090684;28;19908;-60
2021/07/04 02:28:14;;;;;;;;;;;18.10;1.00;;;;;;5090326;28;19927;-59
2021/07/04 02:30:41;;;;;;;;;;;18.10;1.00;;;;;;5091735;28;19923;-61
2021/07/04 02:33:08;;;;;;;;;;;18.10;1.00;;;;;;5089945;28;19908;-60
2021/07/04 02:35:35;;;;;;;;;;;18.10;1.00;;;;;;5091357;28;19938;-62
2021/07/04 02:38:01;;;;;;;;;;;18.10;1.00;;;;;;5090112;28;19928;-61
2021/07/04 02:40:28;;;;;;;;;;;18.10;1.00;;;;;;5090176;28;20195;-61
2021/07/04 02:42:54;;;;;;;;;;;18.10;1.00;;;;;;5090958;28;20364;-57
2021/07/04 02:45:19;;;;;;;;;;;18.10;1.00;;;;;;5091255;28;19953;-59
2021/07/04 02:47:45;;;;;;;;;;;18.10;1.00;;;;;;5082272;28;20425;-56
2021/07/04 02:50:11;;;;;;;;;;;18.00;1.00;;;;;;5089979;28;19916;-60
2021/07/04 02:52:36;;;;;;;;;;;18.00;1.00;;;;;;5090277;28;20091;-57
2021/07/04 02:55:03;;;;;;;;;;;18.00;1.00;;;;;;5089944;28;19947;-58
2021/07/04 02:57:28;;;;;;;;;;;18.00;1.00;;;;;;5089919;28;20323;-58
2021/07/04 02:59:54;;;;;;;;;;;18.00;1.00;;;;;;5106985;28;20014;-55
2021/07/04 03:02:20;;;;;;;;;;;18.00;1.00;;;;;;5108742;28;19912;-62
2021/07/04 03:04:46;;;;;;;;;;;17.90;1.00;;;;;;5111487;28;19912;-56
2021/07/04 03:07:12;;;;;;;;;;;17.90;1.00;;;;;;5110025;28;19907;-59
2021/07/04 03:09:39;;;;;;;;;;;17.90;1.00;;;;;;5089340;28;20264;-61
2021/07/04 03:12:06;;;;;;;;;;;18.00;1.00;;;;;;5090602;28;20011;-61
2021/07/04 03:14:31;;;;;;;;;;;17.90;1.00;;;;;;5090682;28;19915;-61
2021/07/04 03:16:57;;;;;;;;;;;17.90;1.00;;;;;;5090461;28;19912;-60
2021/07/04 03:19:22;;;;;;;;;;;17.80;1.00;;;;;;5089548;28;19923;-60
2021/07/04 03:21:48;;;;;;;;;;;17.70;1.00;;;;;;5089835;28;19992;-60
2021/07/04 03:24:13;;;;;;;;;;;17.70;1.00;;;;;;5089657;28;19969;-63
2021/07/04 03:26:39;;;;;;;;;;;17.70;1.00;;;;;;5089846;28;20298;-60
2021/07/04 03:29:05;;;;;;;;;;;17.70;1.00;;;;;;5089798;28;20229;-58
2021/07/04 03:31:30;;;;;;;;;;;17.60;1.00;;;;;;5090249;28;19954;-60
2021/07/04 03:33:56;;;;;;;;;;;17.70;1.00;;;;;;5089634;28;19962;-61
2021/07/04 03:36:21;;;;;;;;;;;17.60;1.00;;;;;;5089567;28;19916;-60
2021/07/04 03:38:47;;;;;;;;;;;17.70;1.00;;;;;;5088402;28;20478;-59
2021/07/04 03:41:12;;;;;;;;;;;17.60;1.00;;;;;;5089438;28;19912;-62
2021/07/04 03:43:38;;;;;;;;;;;17.70;1.00;;;;;;5089536;28;19909;-62
2021/07/04 03:46:03;;;;;;;;;;;17.70;1.00;;;;;;5090118;28;20372;-60
2021/07/04 03:48:29;;;;;;;;;;;17.70;1.00;;;;;;5088622;28;19962;-60
2021/07/04 03:50:54;;;;;;;;;;;17.70;1.00;;;;;;5089491;28;19991;-61
2021/07/04 03:53:20;;;;;;;;;;;17.70;1.00;;;;;;5088545;28;19995;-61
2021/07/04 03:55:45;;;;;;;;;;;17.70;1.00;;;;;;5089541;28;19908;-60
2021/07/04 03:58:11;;;;;;;;;;;17.70;1.00;;;;;;5090655;28;20333;-60
2021/07/04 04:00:36;;;;;;;;;;;17.70;1.00;;;;;;5109989;28;19920;-62
2021/07/04 04:03:02;;;;;;;;;;;17.80;1.00;;;;;;5109339;28;19984;-59
2021/07/04 04:05:27;;;;;;;;;;;17.80;1.00;;;;;;5110098;28;19908;-61
2021/07/04 04:07:53;;;;;;;;;;;17.80;1.00;;;;;;5102175;28;19908;-60
2021/07/04 04:10:18;;;;;;;;;;;17.80;1.00;;;;;;5088952;28;19912;-60
2021/07/04 04:12:44;;;;;;;;;;;17.90;1.00;;;;;;5089408;28;19947;-61
2021/07/04 04:15:10;;;;;;;;;;;17.90;1.00;;;;;;5089334;28;19912;-61
2021/07/04 04:17:36;;;;;;;;;;;18.00;1.00;;;;;;5088330;28;19915;-59
2021/07/04 04:20:03;;;;;;;;;;;18.10;1.00;;;;;;5089349;28;19908;-59
2021/07/04 04:22:28;;;;;;;;;;;18.10;1.00;;;;;;5087879;28;20052;-60
2021/07/04 04:24:54;;;;;;;;;;;18.20;1.00;;;;;;5072438;28;20011;-62
2021/07/04 04:27:19;;;;;;;;;;;18.20;1.00;;;;;;5068249;28;20383;-64
2021/07/04 04:29:45;;;;;;;;;;;18.30;1.00;;;;;;5068847;28;19917;-62
2021/07/04 04:32:10;;;;;;;;;;;18.30;1.00;;;;;;5068688;28;20387;-62
2021/07/04 04:34:36;;;;;;;;;;;18.40;1.00;;;;;;5069323;28;20292;-61
2021/07/04 04:37:01;;;;;;;;;;;18.40;1.00;;;;;;5067988;28;19917;-60
2021/07/04 04:39:27;;;;;;;;;;;18.40;1.00;;;;;;5067838;28;19966;-60
2021/07/04 04:41:52;;;;;;;;;;;18.50;1.00;;;;;;5068154;28;19908;-58
2021/07/04 04:44:18;;;;;;;;;;;18.50;1.00;;;;;;5068933;28;19995;-62
2021/07/04 04:46:43;;;;;;;;;;;18.60;1.00;;;;;;5068592;28;20379;-60
2021/07/04 04:49:10;;;;;;;;;;;18.70;1.00;;;;;;5067234;28;19917;-62
2021/07/04 04:51:36;;;;;;;;;;;18.80;1.00;;;;;;5068474;28;19946;-62
2021/07/04 04:54:02;;;;;;;;;;;18.90;1.00;;;;;;5068219;28;19912;-62
2021/07/04 04:56:27;;;;;;;;;;;18.90;1.00;;;;;;5068279;28;19916;-60
2021/07/04 04:58:53;;;;;;;;;;;18.90;1.00;;;;;;5083412;28;19960;-59
2021/07/04 05:01:19;;;;;;;;;;;18.90;1.00;;;;;;5109229;28;19965;-61
2021/07/04 05:03:45;;;;;;;;;;;18.90;1.00;;;;;;5109168;28;20280;-59
2021/07/04 05:06:10;;;;;;;;;;;19.00;1.00;;;;;;5109133;28;20124;-61
2021/07/04 05:08:36;;;;;;;;;;;19.00;1.00;;;;;;5095471;28;20267;-59
2021/07/04 05:11:02;;;;;;;;;;;19.00;1.00;;;;;;5076469;28;20102;-58
2021/07/04 05:13:27;;;;;;;;;;;19.10;1.00;;;;;;5050119;28;19909;-60
2021/07/04 05:15:53;;;;;;;;;;;19.20;1.00;;;;;;5082493;28;19923;-61
2021/07/04 05:18:18;;;;;;;;;;;19.30;1.00;;;;;;5084306;28;19916;-60
2021/07/04 05:20:44;;;;;;;;;;;19.40;1.00;;;;;;5082919;28;19937;-61
2021/07/04 05:23:09;;;;;;;;;;;19.40;1.00;;;;;;5081328;28;20002;-62
2021/07/04 05:25:35;;;;;;;;;;;19.50;1.00;;;;;;5075789;28;20003;-60
2021/07/04 05:28:00;;;;;;;;;;;19.70;1.00;;;;;;5059657;28;19909;-60
2021/07/04 05:30:26;;;;;;;;;;;19.90;1.00;;;;;;5079767;28;20434;-63
2021/07/04 05:32:51;;;;;;;;;;;20.00;1.00;;;;;;5076934;28;19913;-62
2021/07/04 05:35:17;;;;;;;;;;;20.10;99.90;;;;;;5078762;28;20007;-63
2021/07/04 05:37:42;;;;;;;;;;;20.10;99.90;;;;;;5075416;28;19970;-60
2021/07/04 05:40:14;;;;;;;;;;;20.10;99.90;;;;;;5067375;28;19916;-60
2021/07/04 05:42:40;;;;;;;;;;;20.20;99.90;;;;;;5067264;28;19917;-60
2021/07/04 05:45:07;;;;;;;;;;;20.30;99.90;;;;;;5067010;28;19969;-61
2021/07/04 05:47:33;;;;;;;;;;;20.30;99.90;;;;;;5075058;28;20337;-60
2021/07/04 05:49:58;;;;;;;;;;;20.40;99.90;;;;;;5085722;28;19997;-62
2021/07/04 05:52:24;;;;;;;;;;;20.50;1.00;;;;;;5087810;28;19908;-60
2021/07/04 05:54:49;;;;;;;;;;;20.60;1.00;;;;;;5087957;28;20004;-61
2021/07/04 05:57:15;;;;;;;;;;;20.70;99.90;;;;;;5087733;28;20232;-63
2021/07/04 05:59:41;;;;;;;;;;;20.90;99.90;;;;;;5073595;28;19939;-62
2021/07/04 06:02:07;;;;;;;;;;;21.20;99.90;;;;;;5067745;28;19912;-61
2021/07/04 06:04:32;;;;;;;;;;;21.10;1.00;;;;;;5067893;28;19908;-61
2021/07/04 06:06:58;;;;;;;;;;;21.40;1.00;;;;;;5068219;28;19916;-59
2021/07/04 06:09:23;;;;;;;;;;;21.70;1.00;;;;;;5089505;28;20299;-60
2021/07/04 06:11:51;;;;;;;;;;;22.20;82.20;;;;;;5090990;28;19908;-58
2021/07/04 06:14:16;;;;;;;;;;;23.40;16.80;;;;;;5092092;28;19978;-59
2021/07/04 06:16:42;;;;;;;;;;;24.90;1.00;;;;;;5091831;28;19944;-59
2021/07/04 06:19:07;;;;;;;;;;;26.50;1.00;;;;;;5089895;28;20386;-59
2021/07/04 06:21:33;;;;;;;;;;;27.40;1.00;;;;;;5090655;28;19958;-63
2021/07/04 06:23:58;;;;;;;;;;;27.70;99.90;;;;;;5091066;28;19951;-59
2021/07/04 06:26:24;;;;;;;;;;;27.20;99.90;;;;;;5091593;28;19938;-56
2021/07/04 06:28:49;;;;;;;;;;;26.60;99.90;;;;;;5090848;28;19912;-61
2021/07/04 06:31:15;;;;;;;;;;;26.10;99.90;;;;;;5091457;28;19919;-61
2021/07/04 06:33:41;;;;;;;;;;;26.60;99.90;;;;;;5074924;28;19912;-63
2021/07/04 06:36:07;;;;;;;;;;;26.80;99.90;;;;;;5071386;28;20436;-61
2021/07/04 06:38:32;;;;;;;;;;;27.10;99.90;;;;;;5067867;28;20408;-61
2021/07/04 06:40:58;;;;;;;;;;;27.30;99.90;;;;;;5071062;28;20011;-55
2021/07/04 06:43:23;;;;;;;;;;;27.10;99.90;;;;;;5070570;28;19909;-63
2021/07/04 06:45:49;;;;;;;;;;;26.70;99.90;;;;;;5069370;28;20070;-60
2021/07/04 06:48:14;;;;;;;;;;;26.30;99.90;;;;;;5069569;28;19992;-61
2021/07/04 06:50:40;;;;;;;;;;;26.10;99.90;;;;;;5070269;28;19963;-60
2021/07/04 06:53:05;;;;;;;;;;;26.00;99.90;;;;;;5070837;28;19908;-62
2021/07/04 06:55:31;;;;;;;;;;;26.40;99.90;;;;;;5081337;28;20061;-60
2021/07/04 06:57:56;;;;;;;;;;;26.70;99.90;;;;;;5089560;28;19909;-61
2021/07/04 07:00:22;;;;;;;;;;;26.80;99.90;;;;;;5111629;28;19927;-62
2021/07/04 07:02:47;;;;;;;;;;;27.50;99.90;;;;;;5086801;28;19912;-62
2021/07/04 07:05:13;;;;;;;;;;;27.90;99.90;;;;;;5081661;28;19978;-62
2021/07/04 07:07:39;;;;;;;;;;;27.80;99.90;;;;;;5073659;28;19916;-62
2021/07/04 07:10:09;;;;;;;;;;;27.70;99.90;;;;;;5089682;28;19920;-62
2021/07/04 07:12:34;;;;;;;;;;;28.50;99.90;;;;;;5090566;28;19937;-62
2021/07/04 07:15:01;;;;;;;;;;;29.40;99.90;;;;;;5090527;28;19924;-62
2021/07/04 07:17:26;;;;;;;;;;;29.40;99.90;;;;;;5088651;28;19927;-62
2021/07/04 07:19:52;;;;;;;;;;;28.70;99.90;;;;;;5090053;28;19916;-62
2021/07/04 07:22:18;;;;;;;;;;;28.30;99.90;;;;;;5089517;28;20210;-62
2021/07/04 07:24:44;;;;;;;;;;;27.90;99.90;;;;;;5075188;28;19982;-62
2021/07/04 07:27:10;;;;;;;;;;;28.10;99.90;;;;;;5069990;28;19912;-62
2021/07/04 07:29:35;;;;;;;;;;;28.40;99.90;;;;;;5069416;28;19992;-63
2021/07/04 07:32:01;;;;;;;;;;;28.90;99.90;;;;;;5069604;28;19913;-62
2021/07/04 07:34:26;;;;;;;;;;;29.20;99.90;;;;;;5070135;28;19988;-62
2021/07/04 07:36:52;;;;;;;;;;;28.90;99.90;;;;;;5069689;28;19984;-62
2021/07/04 07:39:18;;;;;;;;;;;28.30;99.90;;;;;;5069054;28;20046;-61
2021/07/04 07:41:43;;;;;;;;;;;27.90;99.90;;;;;;5069707;28;20003;-59
2021/07/04 07:44:09;;;;;;;;;;;27.80;99.90;;;;;;5069973;28;19920;-62
2021/07/04 07:46:34;;;;;;;;;;;28.50;99.90;;;;;;5069822;28;20143;-62
2021/07/04 07:49:00;;;;;;;;;;;28.40;99.90;;;;;;5068549;28;19928;-62
2021/07/04 07:51:25;;;;;;;;;;;29.10;99.90;;;;;;5068670;28;20257;-62
2021/07/04 07:53:51;;;;;;;;;;;31.10;99.90;;;;;;5069336;28;20092;-61
2021/07/04 07:56:16;;;;;;;;;;;33.60;99.90;;;;;;5069106;28;19919;-62
2021/07/04 07:58:44;;;;;;;;;;;35.40;99.90;;;;;;5080977;28;19915;-62
2021/07/04 08:01:10;;;;;;;;;;;36.50;99.90;;;;;;5110167;28;19920;-62
2021/07/04 08:03:37;;;;;;;;;;;37.90;99.90;;;;;;5109827;28;20372;-62
2021/07/04 08:06:02;;;;;;;;;;;39.60;99.90;;;;;;5110758;28;19995;-61
2021/07/04 08:08:28;;;;;;;;;;;40.20;99.90;;;;;;5096350;28;19919;-61
2021/07/04 08:10:53;;;;;;;;;;;41.20;99.90;;;;;;5088833;28;19912;-62
2021/07/04 08:13:19;;;;;;;;;;;41.90;99.90;;;;;;5088820;28;20312;-62
2021/07/04 08:15:44;;;;;;;;;;;43.10;99.90;;;;;;5089404;28;19942;-60
2021/07/04 08:18:10;;;;;;;;;;;43.40;99.90;;;;;;5088474;28;19931;-62
2021/07/04 08:20:35;;;;;;;;;;;43.20;99.90;;;;;;5088495;28;19969;-62
2021/07/04 08:23:01;;;;;;;;;;;42.00;99.90;;;;;;5077098;28;20308;-62
2021/07/04 08:25:27;;;;;;;;;;;40.20;95.90;;;;;;5080162;28;20396;-62
2021/07/04 08:27:52;;;;;;;;;;;38.20;91.20;;;;;;5080486;28;19980;-62
2021/07/04 08:30:18;;;;;;;;;;;36.90;88.20;;;;;;5088591;28;19923;-62
2021/07/04 08:32:44;;;;;;;;;;;35.60;85.60;;;;;;5088864;28;19912;-63
2021/07/04 08:35:10;;;;;;;;;;;34.00;85.10;;;;;;5089443;28;19912;-60
2021/07/04 08:37:36;;;;;;;;;;;32.60;86.00;;;;;;5088163;28;20306;-62
2021/07/04 08:40:03;;;;;;;;;;;32.50;88.80;;;;;;5088369;28;19931;-61
2021/07/04 08:42:28;;;;;;;;;;;32.70;86.60;;;;;;5079079;28;19999;-61
2021/07/04 08:44:55;;;;;;;;;;;31.90;86.90;;;;;;5076149;28;20007;-61
2021/07/04 08:47:21;;;;;;;;;;;31.30;88.30;;;;;;5082224;28;20678;-61
2021/07/04 08:49:47;;;;;;;;;;;30.70;89.00;;;;;;5084599;28;19974;-62
2021/07/04 08:52:13;;;;;;;;;;;30.50;90.90;;;;;;5088735;28;19947;-63
2021/07/04 08:54:39;;;;;;;;;;;30.60;92.70;;;;;;5088347;28;19912;-62
2021/07/04 08:57:08;;;;;;;;;;;30.70;93.30;;;;;;5088496;28;19917;-61
2021/07/04 08:59:35;;;;;;;;;;;30.70;94.90;;;;;;5101770;28;19912;-61
2021/07/04 09:02:01;;;;;;;;;;;31.50;96.50;;;;;;5090551;28;19912;-63
2021/07/04 09:04:26;;;;;;;;;;;33.10;98.40;;;;;;5082103;28;20057;-64
2021/07/04 09:06:52;;;;;;;;;;;34.40;97.60;;;;;;5088120;28;19912;-62
2021/07/04 09:09:18;;;;;;;;;;;35.30;96.60;;;;;;5069536;28;19913;-68
2021/07/04 09:11:54;;;;;;;;;;;35.60;95.10;;;;;;5086705;28;19908;-63
2021/07/04 09:14:30;;;;;;;;;;;35.50;93.00;;;;;;5088276;28;20065;-61
2021/07/04 09:16:56;;;;;;;;;;;34.80;90.60;;;;;;5083376;28;19919;-61
2021/07/04 09:19:22;;;;;;;;;;;33.50;85.80;;;;;;5082176;28;19908;-61
2021/07/04 09:21:58;;;;;;;;;;;33.90;88.10;;;;;;5077568;28;20260;-60
2021/07/04 09:24:27;;;;;;;;;;;34.30;85.00;;;;;;5082808;28;19916;-61
2021/07/04 09:26:53;;;;;;;;;;;34.60;85.00;;;;;;5068700;28;20587;-62
2021/07/04 09:29:38;;;;;;;;;;;35.80;84.10;;;;;;5067858;28;20003;-61
2021/07/04 09:32:11;;;;;;;;;;;37.70;83.80;;;;;;5068260;28;20238;-62
2021/07/04 09:34:36;;;;;;;;;;;39.60;99.90;;;;;;5068849;28;19909;-62
2021/07/04 09:37:02;;;;;;;;;;;41.50;78.90;;;;;;5067809;28;19915;-63
2021/07/04 09:39:27;;;;;;;;;;;42.30;71.40;;;;;;5068281;28;19912;-64
2021/07/04 09:42:11;;;;;;;;;;;41.80;61.10;;;;;;5071509;28;19912;-62
2021/07/04 09:44:38;;;;;;;;;;;40.90;53.60;;;;;;5072446;28;20002;-63
2021/07/04 09:47:14;;;;;;;;;;;40.00;48.10;;;;;;5071326;28;19912;-61
2021/07/04 09:49:39;;;;;;;;;;;40.10;45.00;;;;;;5071560;28;19999;-62
2021/07/04 09:52:18;;;;;;;;;;;40.60;41.80;;;;;;5052293;28;20049;-61
2021/07/04 09:54:53;;;;;;;;;;;41.80;39.70;;;;;;5071324;28;20046;-63
2021/07/04 09:57:19;;;;;;;;;;;42.50;36.30;;;;;;5079774;28;19958;-60
2021/07/04 09:59:44;;;;;;;;;;;42.50;32.10;;;;;;5074118;28;19955;-60
2021/07/04 10:02:13;;;;;;;;;;;42.00;28.60;;;;;;5080176;28;20010;-57
2021/07/04 10:04:39;;;;;;;;;;;41.50;25.80;;;;;;5089802;28;19931;-60
2021/07/04 10:07:05;;;;;;;;;;;40.80;22.90;;;;;;5081565;28;19920;-59
2021/07/04 10:09:30;;;;;;;;;;;38.80;19.10;;;;;;5088428;28;19912;-60
2021/07/04 10:11:57;;;;;;;;;;;37.40;18.20;;;;;;5088297;28;19969;-60
2021/07/04 10:14:23;;;;;;;;;;;36.60;17.70;;;;;;5089022;28;19970;-60
2021/07/04 10:16:48;;;;;;;;;;;36.20;18.50;;;;;;5089061;28;19949;-59
2021/07/04 10:19:19;;;;;;;;;;;35.60;19.30;;;;;;5087027;28;19938;-58
2021/07/04 10:21:45;;;;;;;;;;;35.30;19.40;;;;;;5088514;28;19918;-61
2021/07/04 10:24:11;;;;;;;;;;;34.90;24.10;;;;;;5078369;28;19908;-59
2021/07/04 10:26:37;;;;;;;;;;;34.70;68.10;;;;;;5068320;28;20363;-59
2021/07/04 10:29:04;;;;;;;;;;;33.40;21.30;;;;;;5067601;28;19932;-59
2021/07/04 10:31:31;;;;;;;;;;;33.10;23.80;;;;;;5068575;28;20172;-61
2021/07/04 10:34:10;;;;;;;;;;;31.60;30.50;;;;;;5068710;28;19908;-62
2021/07/04 10:36:55;;;;;;;;;;;31.00;33.00;;;;;;5068112;28;20324;-64
2021/07/04 10:39:20;;;;;;;;;;;31.10;38.90;;;;;;5067525;28;19916;-63
2021/07/04 10:41:53;;;;;;;;;;;32.10;42.50;;;;;;5067716;28;19912;-63
2021/07/04 10:44:34;;;;;;;;;;;33.10;44.20;;;;;;5068479;28;19913;-64
2021/07/04 10:46:59;;;;;;;;;;;34.30;46.10;;;;;;5067432;28;19915;-60
2021/07/04 10:49:33;;;;;;;;;;;35.50;46.00;;;;;;5067386;28;19913;-62
2021/07/04 10:52:04;;;;;;;;;;;36.50;41.90;;;;;;5067464;28;19908;-61
2021/07/04 10:54:51;;;;;;;;;;;36.70;40.80;;;;;;5068493;28;19916;-62
2021/07/04 10:57:16;;;;;;;;;;;36.60;39.60;;;;;;5087404;28;19978;-63
2021/07/04 10:59:48;;;;;;;;;;;37.10;38.90;;;;;;5088009;28;19915;-63
2021/07/04 11:02:32;;;;;;;;;;;37.50;38.50;;;;;;5088522;28;19918;-63
2021/07/04 11:04:58;;;;;;;;;;;36.90;36.80;;;;;;5088259;28;19908;-62
2021/07/04 11:07:23;;;;;;;;;;;35.60;34.50;;;;;;5086795;28;19912;-62
2021/07/04 11:09:52;;;;;;;;;;;34.70;34.30;;;;;;5087181;28;19916;-62
2021/07/04 11:12:23;;;;;;;;;;;34.20;36.40;;;;;;5083596;28;19923;-63
2021/07/04 11:15:08;;;;;;;;;;;33.90;37.50;;;;;;5074805;28;19912;-63
2021/07/04 11:17:52;;;;;;;;;;;33.70;39.10;;;;;;5086235;28;19951;-62
2021/07/04 11:20:18;;;;;;;;;;;33.90;40.70;;;;;;5083617;28;19943;-61
2021/07/04 11:22:53;;;;;;;;;;;33.40;41.50;;;;;;5089382;28;19912;-61
2021/07/04 11:25:19;;;;;;;;;;;32.30;41.50;;;;;;5076368;28;20051;-61
2021/07/04 11:27:44;;;;;;;;;;;;;;;;;;5069123;28;19971;-61
2021/07/04 11:30:21;;;;;;;;;;;30.70;37.10;;;;;;5069836;28;19916;-64
2021/07/04 11:32:47;;;;;;;;;;;30.30;52.90;;;;;;5079873;28;19923;-63
2021/07/04 11:35:13;;;;;;;;;;;29.80;99.90;;;;;;5067245;28;20168;-63
2021/07/04 11:37:39;;;;;;;;;;;29.50;99.90;;;;;;5085855;28;19971;-63
2021/07/04 11:40:05;;;;;;;;;;;;;;;;;;5085725;28;19916;-61
2021/07/04 11:42:30;;;;;;;;;;;29.30;47.30;;;;;;5086920;28;19931;-64
2021/07/04 11:44:56;;;;;;;;;;;29.30;59.90;;;;;;5083540;28;20013;-61
2021/07/04 11:47:21;;;;;;;;;;;28.80;61.70;;;;;;5074266;28;19912;-58
2021/07/04 11:49:47;;;;;;;;;;;28.90;65.10;;;;;;5071246;28;19920;-60
2021/07/04 11:52:19;;;;;;;;;;;28.80;68.50;;;;;;5073296;28;19919;-60
2021/07/04 11:54:45;;;;;;;;;;;28.90;71.00;;;;;;5086549;28;19924;-62
2021/07/04 12:00:00;;;;;;;;;;;29.40;78.50;;;;;;5087316;28;19920;-61
2021/07/04 12:02:26;;;;;;;;;;;29.80;81.50;;;;;;5066979;28;20311;-61
2021/07/04 12:04:52;;;;;;;;;;;30.20;81.90;;;;;;5068525;28;19912;-61
2021/07/04 12:07:21;;;;;;;;;;;30.50;82.20;;;;;;5067346;28;19920;-62
2021/07/04 12:09:50;;;;;;;;;;;30.00;81.90;;;;;;5086640;28;19920;-60
2021/07/04 12:12:22;;;;;;;;;;;29.80;84.00;;;;;;5087809;28;19908;-60
2021/07/04 12:14:49;;;;;;;;;;;29.70;86.70;;;;;;5087565;28;19919;-61
2021/07/04 12:17:15;;;;;;;;;;;29.60;88.00;;;;;;5086074;28;19919;-59
2021/07/04 12:19:42;;;;;;;;;;;30.00;89.50;;;;;;5086264;28;19916;-62
2021/07/04 12:22:10;;;;;;;;;;;30.10;90.50;;;;;;5086978;28;19911;-62
2021/07/04 12:24:37;;;;;;;;;;;30.30;90.40;;;;;;5086124;28;19957;-62
2021/07/04 12:27:03;;;;;;;;;;;30.30;90.00;;;;;;5086832;28;20008;-62
2021/07/04 12:29:30;;;;;;;;;;;30.30;90.00;;;;;;5086221;28;19958;-62
2021/07/04 12:31:59;;;;;;;;;;;30.30;90.60;;;;;;5087111;28;19908;-61
2021/07/04 12:34:25;;;;;;;;;;;30.20;90.70;;;;;;5086659;28;19931;-62
2021/07/04 12:36:50;;;;;;;;;;;30.00;91.40;;;;;;5086234;28;20276;-62
2021/07/04 12:39:16;;;;;;;;;;;29.70;91.60;;;;;;5085345;28;20002;-62
2021/07/04 12:41:42;;;;;;;;;;;29.80;92.70;;;;;;5086597;28;19993;-60
2021/07/04 12:44:14;;;;;;;;;;;29.80;92.80;;;;;;5086394;28;19965;-61
2021/07/04 12:46:39;;;;;;;;;;;29.70;93.50;;;;;;5086223;28;19915;-62
2021/07/04 12:49:11;;;;;;;;;;;30.10;94.10;;;;;;5076357;28;19909;-61
2021/07/04 12:51:38;;;;;;;;;;;30.40;94.30;;;;;;5085803;28;19912;-59
2021/07/04 12:54:18;;;;;;;;;;;30.50;93.90;;;;;;5085862;28;20384;-60
2021/07/04 12:56:53;;;;;;;;;;;30.60;94.30;;;;;;5085774;28;19965;-62
2021/07/04 12:59:22;;;;;;;;;;;30.30;94.10;;;;;;5096502;28;19929;-62
2021/07/04 13:01:52;;;;;;;;;;;29.90;94.20;;;;;;5107048;28;20069;-61
2021/07/04 13:04:17;;;;;;;;;;;29.70;93.80;;;;;;5106052;28;19912;-62
2021/07/04 13:06:47;;;;;;;;;;;29.90;94.30;;;;;;5106026;28;20296;-62
2021/07/04 13:09:13;;;;;;;;;;;29.80;94.90;;;;;;5087189;28;19912;-62
2021/07/04 13:11:39;;;;;;;;;;;29.50;94.50;;;;;;5085687;28;19965;-62
2021/07/04 13:14:09;;;;;;;;;;;29.40;95.10;;;;;;5085786;28;19912;-62
2021/07/04 13:16:35;;;;;;;;;;;29.40;96.20;;;;;;5088120;28;19920;-63
2021/07/04 13:19:19;;;;;;;;;;;29.20;97.40;;;;;;5089027;28;19956;-63
2021/07/04 13:21:44;;;;;;;;;;;28.70;97.90;;;;;;5089748;28;20391;-63
2021/07/04 13:24:21;;;;;;;;;;;28.40;99.30;;;;;;5090282;28;19908;-62
2021/07/04 13:26:48;;;;;;;;;;;28.30;99.90;;;;;;5092507;28;20373;-63
2021/07/04 13:29:15;;;;;;;;;;;28.20;99.90;;;;;;5092568;28;19951;-61
2021/07/04 13:31:40;;;;;;;;;;;27.40;99.90;;;;;;5093056;28;19965;-60
2021/07/04 13:34:21;;;;;;;;;;;27.50;99.90;;;;;;5092559;28;20011;-61
2021/07/04 13:36:54;;;;;;;;;;;27.70;99.90;;;;;;5092348;28;19986;-62
2021/07/04 13:39:19;;;;;;;;;;;27.90;99.90;;;;;;5091578;28;20246;-61
2021/07/04 13:41:45;;;;;;;;;;;27.60;99.90;;;;;;5092229;28;19916;-62
2021/07/04 13:44:10;;;;;;;;;;;27.70;99.90;;;;;;5092440;28;19908;-60
2021/07/04 13:46:37;;;;;;;;;;;28.00;99.90;;;;;;5092556;28;19959;-65
2021/07/04 13:49:02;;;;;;;;;;;28.20;99.90;;;;;;5091318;28;19912;-63
2021/07/04 13:51:28;;;;;;;;;;;28.30;99.90;;;;;;5092121;28;19916;-61
2021/07/04 13:53:53;;;;;;;;;;;28.30;99.90;;;;;;5092086;28;19916;-63
2021/07/04 13:56:19;;;;;;;;;;;28.40;99.90;;;;;;5092203;28;19908;-63
2021/07/04 13:58:44;;;;;;;;;;;28.40;99.90;;;;;;5098015;28;20310;-62
2021/07/04 14:01:09;;;;;;;;;;;28.30;99.90;;;;;;5112697;28;19916;-62
2021/07/04 14:03:35;;;;;;;;;;;28.00;99.90;;;;;;5111950;28;20389;-61
2021/07/04 14:06:00;;;;;;;;;;;27.60;99.90;;;;;;5112586;28;19908;-61
2021/07/04 14:08:26;;;;;;;;;;;27.50;99.90;;;;;;5100038;28;20340;-59
2021/07/04 14:10:52;;;;;;;;;;;27.30;99.90;;;;;;5091588;28;19913;-62
2021/07/04 14:13:19;;;;;;;;;;;27.00;99.90;;;;;;5091784;28;19919;-62
2021/07/04 14:15:45;;;;;;;;;;;26.90;99.90;;;;;;5092045;28;19920;-61
2021/07/04 14:18:10;;;;;;;;;;;26.60;99.90;;;;;;5090469;28;20065;-61
2021/07/04 14:20:36;;;;;;;;;;;26.00;99.90;;;;;;5091454;28;20283;-63
2021/07/04 14:23:01;;;;;;;;;;;26.10;99.90;;;;;;5089176;28;19919;-62
2021/07/04 14:25:27;;;;;;;;;;;26.00;99.90;;;;;;5071918;28;19908;-62